This is the latest recevied weather packets stored in our database for station/object KD8JAM. If no packets are shown the sender has not sent any weather packets the latest 10 day(s).
| Time | Temp. | Humidity | Pressure | Rain* | Wind** | Luminosity | Snow |
|---|---|---|---|---|---|---|---|
| 1777837459 | 12.78° C | 71% | 1002.6 hPa | 0 mm | - | 622 W/m² | - |
| 1777837155 | 13.33° C | 71% | 1002.8 hPa | 0 mm | - | 552 W/m² | - |
| 1777836850 | 13.33° C | 71% | 1002.5 hPa | 0 mm | - | 615 W/m² | - |
| 1777836546 | 13.33° C | 70% | 1002.7 hPa | 0 mm | - | 611 W/m² | - |
| 1777836242 | 13.89° C | 70% | 1002.9 hPa | 0 mm | - | 670 W/m² | - |
| 1777835939 | 13.33° C | 71% | 1003 hPa | 0 mm | - | 610 W/m² | - |
| 1777835636 | 13.33° C | 69% | 1002.9 hPa | 0 mm | - | 634 W/m² | - |
| 1777835332 | 13.33° C | 71% | 1002.8 hPa | 0 mm | - | 550 W/m² | - |
| 1777835030 | 13.33° C | 71% | 1002.8 hPa | 0 mm | - | 615 W/m² | - |
| 1777834726 | 13.33° C | 70% | 1002.9 hPa | 0 mm | - | 591 W/m² | - |
| 1777834423 | 13.33° C | 71% | 1002.9 hPa | 0 mm | - | 737 W/m² | - |
| 1777834123 | 13.33° C | 70% | 1002.9 hPa | 0 mm | - | 749 W/m² | - |
| 1777833819 | 13.33° C | 70% | 1003.4 hPa | 0 mm | - | 498 W/m² | - |
| 1777833515 | 13.33° C | 70% | 1003.4 hPa | 0 mm | - | 738 W/m² | - |
| 1777833212 | 13.33° C | 71% | 1003.3 hPa | 0 mm | - | 790 W/m² | - |
| 1777832910 | 12.78° C | 71% | 1003.3 hPa | 0 mm | - | 310 W/m² | - |
| 1777832609 | 13.89° C | 69% | 1003.3 hPa | 0 mm | - | 771 W/m² | - |
| 1777832305 | 13.89° C | 68% | 1003.4 hPa | 0 mm | - | 662 W/m² | - |
| 1777832002 | 13.89° C | 69% | 1003.4 hPa | 0 mm | - | 604 W/m² | - |
| 1777831699 | 13.89° C | 68% | 1003.3 hPa | 0 mm | - | 660 W/m² | - |
| 1777831397 | 13.89° C | 68% | 1003.3 hPa | 0 mm | - | 644 W/m² | - |
| 1777831093 | 13.33° C | 69% | 1003.1 hPa | 0 mm | - | 658 W/m² | - |
| 1777830791 | 13.89° C | 70% | 1003.4 hPa | 0 mm | - | 639 W/m² | - |
| 1777830486 | 13.89° C | 69% | 1003.4 hPa | 0 mm | - | 766 W/m² | - |
| 1777830185 | 13.33° C | 71% | 1003.5 hPa | 0 mm | - | 672 W/m² | - |
* Rain latest hour (hover to see other rain measurements)
** Current wind speed in m/s (hover to see current wind gust speed)